createdAt,value
2022-10-09T00:02:59.320Z,11.59
2022-10-09T00:07:00.838Z,11.56
2022-10-09T00:11:10.202Z,11.53
2022-10-09T00:15:12.137Z,11.49
2022-10-09T00:19:13.675Z,11.48
2022-10-09T00:23:17.304Z,11.44
2022-10-09T00:27:18.810Z,11.39
2022-10-09T00:31:20.424Z,11.33
2022-10-09T00:35:22.452Z,11.31
2022-10-09T00:39:23.955Z,11.26
2022-10-09T00:43:41.508Z,11.21
2022-10-09T00:47:47.496Z,11.19
2022-10-09T00:51:51.562Z,11.09
2022-10-09T00:55:53.610Z,11.01
2022-10-09T00:59:55.118Z,10.99
2022-10-09T01:03:56.725Z,10.88
2022-10-09T01:08:10.074Z,10.86
2022-10-09T01:12:22.432Z,10.84
2022-10-09T01:16:37.665Z,10.87
2022-10-09T01:21:31.809Z,10.75
2022-10-09T01:25:36.124Z,10.75
2022-10-09T01:29:55.761Z,10.70
2022-10-09T01:34:00.955Z,10.68
2022-10-09T01:38:04.394Z,10.65
2022-10-09T01:42:06.393Z,10.62
2022-10-09T01:46:23.219Z,10.58
2022-10-09T01:50:30.710Z,10.54
2022-10-09T01:54:45.139Z,10.55
2022-10-09T01:59:02.247Z,10.54
2022-10-09T02:03:08.095Z,10.47
2022-10-09T02:07:10.267Z,10.36
2022-10-09T02:11:14.829Z,10.29
2022-10-09T02:15:16.497Z,10.25
2022-10-09T02:19:30.624Z,10.22
2022-10-09T02:23:34.940Z,10.17
2022-10-09T02:27:36.567Z,10.13
2022-10-09T02:31:40.239Z,10.09
2022-10-09T02:35:42.250Z,10.06
2022-10-09T02:39:43.926Z,10.04
2022-10-09T02:43:45.469Z,10.09
2022-10-09T02:47:46.953Z,10.07
2022-10-09T02:51:48.489Z,10.04
2022-10-09T02:55:50.032Z,9.99
2022-10-09T02:59:51.536Z,9.96
2022-10-09T03:03:53.190Z,9.95
2022-10-09T03:07:54.700Z,9.91
2022-10-09T03:11:56.211Z,9.86
2022-10-09T03:16:09.877Z,9.83
2022-10-09T03:20:11.481Z,9.78
2022-10-09T03:24:13.056Z,9.77
2022-10-09T03:28:14.677Z,9.73
2022-10-09T03:32:16.364Z,9.63
2022-10-09T03:36:18.030Z,9.65
2022-10-09T03:40:19.511Z,9.65
2022-10-09T03:44:20.991Z,9.55
2022-10-09T03:48:22.677Z,9.50
2022-10-09T03:52:24.331Z,9.48
2022-10-09T03:56:25.860Z,9.50
2022-10-09T04:00:27.641Z,9.53
2022-10-09T04:04:29.216Z,9.55
2022-10-09T04:08:30.798Z,9.52
2022-10-09T04:12:32.336Z,9.45
2022-10-09T04:16:33.898Z,9.48
2022-10-09T04:20:35.441Z,9.44
2022-10-09T04:24:36.915Z,9.40
2022-10-09T04:28:39.126Z,9.34
2022-10-09T04:32:40.678Z,9.30
2022-10-09T04:36:42.236Z,9.22
2022-10-09T04:40:43.916Z,9.13
2022-10-09T04:44:45.403Z,9.15
2022-10-09T04:48:48.003Z,9.17
2022-10-09T04:52:49.926Z,9.19
2022-10-09T04:56:51.873Z,9.19
2022-10-09T05:00:53.398Z,9.19
2022-10-09T05:04:56.111Z,9.13
2022-10-09T05:08:57.609Z,9.10
2022-10-09T05:12:59.508Z,9.06
2022-10-09T05:17:23.144Z,9.04
2022-10-09T05:21:26.395Z,8.98
2022-10-09T05:25:27.935Z,8.97
2022-10-09T05:29:29.489Z,8.94
2022-10-09T05:33:31.424Z,8.86
2022-10-09T05:37:32.923Z,8.79
2022-10-09T05:41:34.447Z,8.80
2022-10-09T05:45:36.055Z,8.76
2022-10-09T05:49:37.694Z,8.75
2022-10-09T05:53:40.445Z,8.64
2022-10-09T05:57:42.009Z,8.58
2022-10-09T06:01:46.722Z,8.54
2022-10-09T06:05:48.380Z,8.50
2022-10-09T06:09:50.574Z,8.50
2022-10-09T06:13:52.241Z,8.54
2022-10-09T06:17:53.781Z,8.55
2022-10-09T06:21:55.343Z,8.61
2022-10-09T06:26:02.818Z,8.55
2022-10-09T06:30:04.598Z,8.55
2022-10-09T06:34:06.405Z,8.50
2022-10-09T06:38:08.314Z,8.46
2022-10-09T06:42:09.813Z,8.47
2022-10-09T06:46:36.954Z,8.50
2022-10-09T06:50:38.615Z,8.60
2022-10-09T06:54:40.193Z,8.67
2022-10-09T06:58:41.746Z,8.71
2022-10-09T07:02:44.170Z,8.82
2022-10-09T07:06:49.292Z,8.83
2022-10-09T07:10:50.800Z,8.86
2022-10-09T07:14:52.308Z,8.93
2022-10-09T07:18:55.020Z,8.98
2022-10-09T07:22:56.538Z,9.04
2022-10-09T07:26:58.117Z,9.10
2022-10-09T07:31:03.991Z,9.16
2022-10-09T07:35:05.945Z,9.26
2022-10-09T07:39:07.578Z,9.35
2022-10-09T07:43:09.117Z,9.44
2022-10-09T07:47:10.658Z,9.52
2022-10-09T07:51:20.686Z,9.62
2022-10-09T07:55:22.270Z,9.73
2022-10-09T07:59:23.861Z,9.85
2022-10-09T08:03:25.348Z,9.93
2022-10-09T08:07:29.351Z,10.04
2022-10-09T08:11:35.175Z,10.16
2022-10-09T08:15:44.036Z,10.29
2022-10-09T08:19:45.588Z,10.42
2022-10-09T08:23:47.093Z,10.51
2022-10-09T08:27:48.582Z,10.69
2022-10-09T08:31:50.136Z,10.81
2022-10-09T08:35:53.116Z,10.90
2022-10-09T08:39:54.605Z,11.03
2022-10-09T08:44:02.662Z,11.19
2022-10-09T08:48:13.390Z,11.33
2022-10-09T08:52:18.972Z,11.42
2022-10-09T08:56:20.536Z,11.57
2022-10-09T09:00:25.272Z,11.72
2022-10-09T09:04:54.533Z,11.88
2022-10-09T09:09:02.357Z,12.08
2022-10-09T09:13:17.639Z,12.25
2022-10-09T09:17:28.489Z,12.43
2022-10-09T09:21:53.898Z,12.56
2022-10-09T09:25:56.258Z,12.70
2022-10-09T09:30:06.535Z,12.89
2022-10-09T09:34:37.808Z,13.10
2022-10-09T09:39:02.427Z,13.35
2022-10-09T09:43:04.989Z,13.57
2022-10-09T09:47:15.288Z,13.75
2022-10-09T09:51:28.566Z,13.94
2022-10-09T09:55:32.532Z,14.02
2022-10-09T09:59:43.273Z,14.16
2022-10-09T10:03:49.917Z,14.30
2022-10-09T10:07:51.981Z,14.34
2022-10-09T10:12:01.291Z,14.53
2022-10-09T10:16:03.038Z,14.74
2022-10-09T10:20:08.024Z,14.97
2022-10-09T10:24:14.887Z,15.12
2022-10-09T10:28:23.148Z,15.18
2022-10-09T10:32:32.267Z,15.19
2022-10-09T10:36:34.081Z,15.37
2022-10-09T10:40:41.884Z,15.41
2022-10-09T10:44:54.410Z,15.48
2022-10-09T10:48:58.781Z,15.56
2022-10-09T10:53:44.753Z,15.71
2022-10-09T10:58:01.792Z,15.73
2022-10-09T11:02:32.102Z,15.80
2022-10-09T11:06:43.318Z,15.92
2022-10-09T11:11:01.943Z,16.06
2022-10-09T11:15:23.128Z,16.14
2022-10-09T11:19:32.341Z,16.10
2022-10-09T11:23:45.923Z,16.26
2022-10-09T11:27:51.677Z,16.44
2022-10-09T11:31:57.409Z,16.57
2022-10-09T11:36:12.523Z,16.67
2022-10-09T11:40:14.110Z,16.78
2022-10-09T11:44:30.676Z,16.85
2022-10-09T11:48:50.934Z,16.95
2022-10-09T11:53:14.581Z,17.03
2022-10-09T11:57:27.086Z,17.10
2022-10-09T12:01:32.768Z,17.20
2022-10-09T12:05:48.622Z,17.27
2022-10-09T12:09:58.540Z,17.32
2022-10-09T12:14:08.629Z,17.40
2022-10-09T12:18:24.809Z,17.51
2022-10-09T12:22:30.639Z,17.53
2022-10-09T12:26:35.045Z,17.60
2022-10-09T12:30:45.048Z,17.70
2022-10-09T12:34:51.063Z,17.74
2022-10-09T12:38:52.860Z,17.80
2022-10-09T12:42:56.278Z,17.84
2022-10-09T12:47:07.387Z,17.91
2022-10-09T12:51:17.706Z,17.95
2022-10-09T12:55:29.892Z,18.04
2022-10-09T12:59:31.532Z,18.11
2022-10-09T13:03:37.425Z,18.17
2022-10-09T13:07:39.246Z,18.23
2022-10-09T13:11:44.894Z,18.28
2022-10-09T13:15:46.445Z,18.35
2022-10-09T13:19:52.952Z,18.42
2022-10-09T13:23:56.345Z,18.51
2022-10-09T13:27:58.036Z,18.54
2022-10-09T13:31:59.590Z,18.56
2022-10-09T13:36:01.215Z,18.66
2022-10-09T13:40:03.629Z,18.69
2022-10-09T13:44:05.136Z,18.75
2022-10-09T13:48:06.640Z,18.78
2022-10-09T13:52:08.921Z,18.84
2022-10-09T13:56:10.425Z,18.89
2022-10-09T14:00:12.610Z,18.93
2022-10-09T14:04:14.212Z,19.01
2022-10-09T14:08:15.789Z,19.05
2022-10-09T14:12:17.311Z,19.09
2022-10-09T14:16:18.836Z,19.10
2022-10-09T14:20:20.404Z,19.12
2022-10-09T14:24:22.170Z,19.17
2022-10-09T14:28:23.757Z,19.20
2022-10-09T14:32:25.391Z,19.21
2022-10-09T14:36:27.407Z,19.21
2022-10-09T14:40:28.911Z,19.21
2022-10-09T14:44:30.674Z,19.28
2022-10-09T14:48:32.790Z,19.24
2022-10-09T14:52:34.319Z,19.24
2022-10-09T14:56:36.167Z,19.24
2022-10-09T15:00:37.747Z,19.24
2022-10-09T15:04:39.330Z,19.23
2022-10-09T15:08:42.440Z,19.20
2022-10-09T15:12:43.969Z,19.16
2022-10-09T15:16:45.544Z,19.15
2022-10-09T15:20:47.192Z,19.09
2022-10-09T15:24:49.464Z,18.97
2022-10-09T15:28:51.030Z,18.87
2022-10-09T15:32:52.522Z,18.75
2022-10-09T15:36:54.015Z,18.66
2022-10-09T15:40:56.615Z,18.54
2022-10-09T15:44:58.159Z,18.42
2022-10-09T15:48:59.849Z,18.35
2022-10-09T15:53:01.453Z,18.23
2022-10-09T15:57:03.041Z,18.13
2022-10-09T16:01:15.433Z,17.98
2022-10-09T16:05:17.013Z,17.86
2022-10-09T16:09:18.540Z,17.73
2022-10-09T16:13:20.053Z,17.60
2022-10-09T16:17:21.578Z,17.47
2022-10-09T16:21:25.332Z,17.38
2022-10-09T16:25:26.946Z,17.25
2022-10-09T16:29:29.854Z,17.17
2022-10-09T16:33:31.470Z,17.07
2022-10-09T16:37:32.985Z,16.99
2022-10-09T16:41:37.238Z,16.92
2022-10-09T16:45:43.901Z,16.82
2022-10-09T16:49:45.435Z,16.77
2022-10-09T16:53:56.207Z,16.67
2022-10-09T16:57:57.743Z,16.62
2022-10-09T17:02:00.242Z,16.57
2022-10-09T17:06:02.032Z,16.50
2022-10-09T17:10:04.110Z,16.44
2022-10-09T17:14:06.707Z,16.34
2022-10-09T17:18:08.586Z,16.29
2022-10-09T17:22:10.169Z,16.23
2022-10-09T17:26:14.646Z,16.14
2022-10-09T17:30:16.297Z,16.08
2022-10-09T17:34:17.871Z,16.01
2022-10-09T17:38:19.509Z,15.96
2022-10-09T17:42:21.069Z,15.91
2022-10-09T17:46:23.960Z,15.85
2022-10-09T17:50:25.491Z,15.80
2022-10-09T17:54:27.074Z,15.76
2022-10-09T17:58:28.582Z,15.71
2022-10-09T18:02:30.108Z,15.68
2022-10-09T18:06:33.830Z,15.64
2022-10-09T18:10:37.016Z,15.59
2022-10-09T18:14:38.584Z,15.56
2022-10-09T18:18:40.323Z,15.51
2022-10-09T18:22:41.829Z,15.46
2022-10-09T18:26:44.453Z,15.43
2022-10-09T18:30:46.201Z,15.38
2022-10-09T18:34:47.821Z,15.35
2022-10-09T18:38:54.425Z,15.31
2022-10-09T18:42:55.951Z,15.28
2022-10-09T18:46:58.952Z,15.25
2022-10-09T18:51:02.341Z,15.22
2022-10-09T18:55:05.795Z,15.18
2022-10-09T18:59:12.098Z,15.13
2022-10-09T19:03:13.616Z,15.09
2022-10-09T19:07:15.179Z,15.07
2022-10-09T19:11:16.813Z,15.04
2022-10-09T19:15:19.490Z,15.01
2022-10-09T19:19:21.104Z,14.98
2022-10-09T19:23:22.696Z,14.95
2022-10-09T19:27:26.585Z,14.94
2022-10-09T19:31:28.458Z,14.90
2022-10-09T19:35:30.005Z,14.91
2022-10-09T19:39:32.681Z,14.86
2022-10-09T19:43:34.677Z,14.83
2022-10-09T19:47:36.358Z,14.80
2022-10-09T19:51:38.188Z,14.79
2022-10-09T19:55:39.797Z,14.75
2022-10-09T19:59:41.297Z,14.72
2022-10-09T20:03:43.097Z,14.69
2022-10-09T20:07:44.697Z,14.66
2022-10-09T20:11:46.247Z,14.64
2022-10-09T20:15:47.792Z,14.60
2022-10-09T20:19:49.422Z,14.54
2022-10-09T20:23:53.186Z,14.54
2022-10-09T20:27:54.717Z,14.45
2022-10-09T20:31:56.210Z,14.44
2022-10-09T20:35:57.889Z,14.39
2022-10-09T20:39:59.436Z,14.36
2022-10-09T20:44:03.030Z,14.31
2022-10-09T20:48:04.614Z,14.30
2022-10-09T20:52:06.124Z,14.27
2022-10-09T20:56:09.842Z,14.26
2022-10-09T21:00:11.849Z,14.24
2022-10-09T21:04:14.694Z,14.23
2022-10-09T21:08:16.346Z,14.20
2022-10-09T21:12:17.881Z,14.21
2022-10-09T21:16:24.172Z,14.20
2022-10-09T21:20:25.691Z,14.17
2022-10-09T21:24:27.645Z,14.13
2022-10-09T21:28:29.865Z,14.11
2022-10-09T21:32:31.484Z,14.09
2022-10-09T21:37:08.894Z,14.05
2022-10-09T21:41:08.719Z,14.01
2022-10-09T21:45:11.893Z,13.98
2022-10-09T21:49:24.927Z,13.96
2022-10-09T21:53:26.450Z,13.94
2022-10-09T21:57:28.104Z,13.90
2022-10-09T22:01:29.647Z,13.90
2022-10-09T22:05:31.198Z,13.87
2022-10-09T22:09:32.697Z,13.87
2022-10-09T22:13:34.467Z,13.84
2022-10-09T22:17:36.154Z,13.84
2022-10-09T22:21:37.696Z,13.83
2022-10-09T22:25:39.734Z,13.80
2022-10-09T22:29:41.274Z,13.75
2022-10-09T22:33:43.860Z,13.69
2022-10-09T22:37:45.599Z,13.68
2022-10-09T22:41:47.065Z,13.66
2022-10-09T22:45:48.563Z,13.62
2022-10-09T22:49:50.440Z,13.59
2022-10-09T22:53:51.943Z,13.55
2022-10-09T22:57:53.427Z,13.43
2022-10-09T23:01:57.321Z,13.27
2022-10-09T23:06:13.149Z,12.98
2022-10-09T23:10:14.705Z,12.80
2022-10-09T23:14:16.408Z,12.77
2022-10-09T23:18:17.972Z,12.67
2022-10-09T23:22:19.494Z,12.59
2022-10-09T23:26:23.934Z,12.66
2022-10-09T23:30:25.435Z,12.70
2022-10-09T23:34:27.047Z,12.70
2022-10-09T23:38:28.619Z,12.71
2022-10-09T23:42:30.213Z,12.67
2022-10-09T23:46:37.431Z,12.67
2022-10-09T23:50:38.917Z,12.67
2022-10-09T23:54:40.538Z,12.63
2022-10-09T23:58:42.087Z,12.56
